FW5849 Marcos Paz AR current weather conditions

sailwx.info

Wind from 146 at 5 knots gusting 8

Air temperature 27.2° C
Dewpoint 23.0° C

Last reported at 2020-Jan-25 12:40 UTC.
Time now 2020-Jan-25 14:01 UTC

Location: S 34°45' W 058°48'.
View on Google Maps.

See reports from other nearby stations

  
Tides and Currents Weather Stations Pressure Air Temp Water Temp Dewpoint Dewpoint Depression Visibility Wind Speed Wind Dir Waves Ship Positions
date/time (UTC)wind fromknots sea level pressurealtimeterstation pressurevisibilityair tempwater tempwave heightnotes
2020-Jan-25 12:40 146 5 gusting 8 27.2
2020-Jan-25 12:10 135 6 gusting 8 26.1
2020-Jan-25 11:10 125 4 gusting 6 24.4
2020-Jan-25 10:40 155 2 gusting 5 23.9
2020-Jan-25 10:10 171 1 gusting 4 22.8
2020-Jan-25 09:40 191 0 gusting 5 22.8
2020-Jan-25 09:10 131 0 gusting 4 22.8
2020-Jan-25 08:40 152 2 gusting 5 23.3
2020-Jan-25 08:10 183 2 gusting 5 23.3
2020-Jan-25 07:40 148 3 gusting 6 23.9
2020-Jan-25 07:09 197 3 gusting 6 24.4
2020-Jan-25 06:40 215 2 gusting 4 23.9
2020-Jan-25 06:10 200 2 gusting 2 23.9
2020-Jan-25 05:41 161 1 gusting 6 23.9
2020-Jan-25 05:11 222 3 gusting 6 24.4
2020-Jan-25 04:41 241 3 gusting 5 24.4
2020-Jan-25 04:11 240 2 gusting 6 24.4
2020-Jan-25 03:40 220 1 gusting 4 24.4
2020-Jan-25 03:10 248 1 gusting 3 25.0
2020-Jan-25 02:40 149 1 gusting 2 25.6
2020-Jan-25 02:10 136 0 gusting 1 25.6
2020-Jan-25 01:40 143 0 gusting 5 26.1
2020-Jan-25 01:10 213 2 gusting 4 26.7
2020-Jan-25 00:40 238 2 gusting 4 27.2
2020-Jan-25 00:10 300 1 gusting 3 27.8
2020-Jan-24 23:40 246 2 gusting 5 27.8
2020-Jan-24 23:10 237 3 gusting 7 28.3
2020-Jan-24 22:40 235 4 gusting 7 29.4
2020-Jan-24 22:10 224 4 gusting 10 30.0
2020-Jan-24 21:40 231 6 gusting 12 30.6
2020-Jan-24 21:10 220 5 gusting 10 31.1
2020-Jan-24 20:40 217 6 gusting 13 31.1
2020-Jan-24 20:10 218 6 gusting 13 31.7
2020-Jan-24 19:40 217 6 gusting 13 31.1
2020-Jan-24 19:10 217 7 gusting 13 31.1
2020-Jan-24 18:40 202 7 gusting 13 31.1
2020-Jan-24 18:10 219 8 gusting 14 30.6
2020-Jan-24 17:40 239 8 gusting 16 30.6
2020-Jan-24 17:10 221 8 gusting 14 30.6
2020-Jan-24 16:40 138 8 gusting 13 30.0
2020-Jan-24 16:10 216 8 gusting 13 29.4
2020-Jan-24 15:40 243 8 gusting 14 28.9
2020-Jan-24 15:10 250 9 gusting 14 28.3
2020-Jan-24 14:39 238 9 gusting 14 27.8
2020-Jan-24 14:10 220 7 gusting 13 27.2
2020-Jan-24 13:39 234 9 gusting 15 26.7
2020-Jan-24 13:09 246 9 gusting 14 26.1
2020-Jan-24 12:39 243 6 gusting 11 25.0
2020-Jan-24 12:09 258 6 gusting 11 23.9
2020-Jan-24 11:39 257 6 gusting 14 22.8
2020-Jan-24 11:09 269 7 gusting 13 22.2
2020-Jan-24 10:39 255 7 gusting 11 21.7
2020-Jan-24 10:09 254 5 gusting 10 21.1
2020-Jan-24 09:39 293 5 gusting 7 21.7
2020-Jan-24 09:09 274 3 gusting 6 21.7
2020-Jan-24 08:39 203 0 gusting 2 21.1
2020-Jan-24 08:09 143 1 gusting 3 22.2
2020-Jan-24 07:39 264 3 gusting 6 22.2
2020-Jan-24 07:09 273 3 gusting 6 23.3
2020-Jan-24 06:39 262 1 gusting 3 22.8
2020-Jan-24 06:09 075 0 22.2
2020-Jan-24 05:42 075 22.2
2020-Jan-24 05:12 075 21.7
2020-Jan-24 04:42 075 22.8
2020-Jan-24 04:12 075 22.8
2020-Jan-24 03:42 075 23.3
2020-Jan-24 03:12 075 23.9
2020-Jan-24 02:41 075 23.9
2020-Jan-24 02:11 053 0 gusting 1 25.0
2020-Jan-24 01:41 053 0 gusting 4 25.6
2020-Jan-24 01:11 305 1 gusting 3 26.7
2020-Jan-24 00:41 248 1 gusting 3 26.7
2020-Jan-24 00:11 153 1 gusting 5 27.2
2020-Jan-23 23:41 274 1 gusting 5 27.8
2020-Jan-23 23:11 264 2 gusting 6 28.3
2020-Jan-23 22:41 281 4 gusting 6 29.4
2020-Jan-23 22:11 238 5 gusting 8 30.0
2020-Jan-23 21:41 270 4 gusting 8 30.6
2020-Jan-23 21:11 216 5 gusting 9 30.6
2020-Jan-23 20:41 255 5 gusting 10 31.1
2020-Jan-23 20:11 250 6 gusting 13 31.1
2020-Jan-23 19:41 235 5 gusting 10 31.1
2020-Jan-23 19:11 261 5 gusting 10 31.1
2020-Jan-23 18:41 273 5 gusting 10 30.6
2020-Jan-23 18:11 305 5 gusting 10 31.1
2020-Jan-23 17:41 273 5 gusting 11 30.6
2020-Jan-23 17:11 277 4 gusting 11 30.6
2020-Jan-23 16:41 236 5 gusting 9 30.0
2020-Jan-23 16:11 057 5 gusting 10 29.4
2020-Jan-23 15:41 319 5 gusting 9 29.4
2020-Jan-23 15:11 267 5 gusting 9 28.9
2020-Jan-23 14:41 277 5 gusting 10 28.3
2020-Jan-23 14:11 234 4 gusting 10 27.2